Etusivu
METAR-TAF:

METAR-TAF

Lentoasemat :

Sundsvall-Timrån lentoasema

Sundsvall-Härnösand, Ruotsi

Leveyspiiri: 62-32N, Pituuspiiri: 017-27E, korkeus merenpinnasta: 4 m

Tämänhetkinen sää

Tämä raportti tehtiin 31 minuuttia sitten, kello 17.20 UTC
Tuuli 2 kn etelästä
Lämpötila 9°C
Kosteus 61%
Ilmanpaine 1022 hPa
Näkyvyys 10 km tai enemmän
ei pilviä alle 1500 m:ssä eikä cumulonimbus-pilviä

METAR: ESNN 251720Z 17002KT CAVOK 09/02 Q1022

Aika: 19:51 (17:51 UTC)

Sääennuste

Tämä raportti tehtiin 21 minuuttia sitten, kello 17.30 UTC
Ennuste voimassa 25. päivästä klo 18 UTC - 25. päivään klo 22 UTC
Tuuli 2 kn eri suunnista
Näkyvyys 10 km tai enemmän
ei pilviä alle 1500 m:ssä eikä cumulonimbus-pilviä

TAF: ESNN 251730Z 2518/2522 VRB02KT CAVOK

Säähavainnot ja -ennusteet yli 4000 lentoasemalta (METAR- ja TAF-raportit).

Käytössä olevat sääasemat on merkitty karttaan keltaisilla ja punaisilla pisteillä.

Aseta hiiri pisteen päälle nähdäksesi sääaseman nimen.

Klikkaa sitten nähdäksesi säähavainnot ja -ennusteet.

Kartan vaihtaminen: klikkaa mustalla rastilla varustettuja vihreitä pisteitä, niin voit zoomata sisään; viivalla varustettua vihreää pistettä, niin voit zoomata ulos tai vihreitä nuolia, niin pääset viereisille kartoille.


METAR-TAF: